createdAt,value
2022-09-23T00:01:19.216Z,101663.69
2022-09-23T00:06:25.425Z,101654.91
2022-09-23T00:11:30.308Z,101662.59
2022-09-23T00:16:35.818Z,101658.16
2022-09-23T00:21:40.847Z,101651.88
2022-09-23T00:26:44.607Z,101645.84
2022-09-23T00:31:48.319Z,101641.34
2022-09-23T00:36:53.305Z,101629.91
2022-09-23T00:41:57.139Z,101624.28
2022-09-23T00:47:00.957Z,101631.62
2022-09-23T00:52:12.331Z,101638.16
2022-09-23T00:57:17.960Z,101634.25
2022-09-23T01:02:22.227Z,101631.38
2022-09-23T01:07:27.353Z,101631.50
2022-09-23T01:12:51.127Z,101622.53
2022-09-23T01:18:05.308Z,101616.09
2022-09-23T01:23:28.774Z,101613.19
2022-09-23T01:28:54.286Z,101615.31
2022-09-23T01:34:03.239Z,101613.22
2022-09-23T01:39:14.154Z,101610.25
2022-09-23T01:44:22.887Z,101609.37
2022-09-23T01:49:33.629Z,101607.38
2022-09-23T01:54:40.924Z,101608.78
2022-09-23T01:59:48.964Z,101607.81
2022-09-23T02:05:01.792Z,101610.13
2022-09-23T02:10:12.370Z,101602.13
2022-09-23T02:15:19.460Z,101604.66
2022-09-23T02:20:29.147Z,101598.41
2022-09-23T02:25:41.309Z,101599.06
2022-09-23T02:30:49.994Z,101586.69
2022-09-23T02:36:01.149Z,101573.72
2022-09-23T02:41:10.894Z,101578.44
2022-09-23T02:46:14.688Z,101571.16
2022-09-23T02:51:20.220Z,101569.22
2022-09-23T02:56:23.920Z,101562.94
2022-09-23T03:01:40.088Z,101559.22
2022-09-23T03:06:57.723Z,101555.41
2022-09-23T03:12:13.250Z,101557.50
2022-09-23T03:17:26.774Z,101556.28
2022-09-23T03:22:36.387Z,101564.53
2022-09-23T03:27:42.469Z,101559.06
2022-09-23T03:32:47.821Z,101562.19
2022-09-23T03:37:58.255Z,101555.66
2022-09-23T03:43:03.461Z,101554.12
2022-09-23T03:48:07.867Z,101553.66
2022-09-23T03:53:14.211Z,101541.19
2022-09-23T03:58:17.899Z,101537.19
2022-09-23T04:03:22.351Z,101525.31
2022-09-23T04:08:27.572Z,101523.38
2022-09-23T04:13:31.573Z,101519.16
2022-09-23T04:18:35.227Z,101514.22
2022-09-23T04:23:40.315Z,101517.78
2022-09-23T04:28:43.983Z,101510.03
2022-09-23T04:33:47.656Z,101509.78
2022-09-23T04:38:52.893Z,101507.59
2022-09-23T04:43:57.462Z,101507.44
2022-09-23T04:49:01.157Z,101491.31
2022-09-23T04:54:06.283Z,101492.13
2022-09-23T04:59:10.107Z,101498.09
2022-09-23T05:04:14.854Z,101493.03
2022-09-23T05:09:19.907Z,101494.53
2022-09-23T05:14:23.679Z,101494.63
2022-09-23T05:19:27.380Z,101505.00
2022-09-23T05:24:32.375Z,101503.12
2022-09-23T05:29:36.160Z,101509.19
2022-09-23T05:34:40.136Z,101502.31
2022-09-23T05:39:45.178Z,101518.09
2022-09-23T05:44:48.877Z,101516.47
2022-09-23T05:50:00.677Z,101525.13
2022-09-23T05:55:07.226Z,101527.66
2022-09-23T06:00:13.483Z,101528.69
2022-09-23T06:05:17.295Z,101525.06
2022-09-23T06:10:22.308Z,101520.12
2022-09-23T06:15:26.314Z,101509.41
2022-09-23T06:20:30.005Z,101516.44
2022-09-23T06:25:36.168Z,101510.44
2022-09-23T06:30:40.575Z,101515.81
2022-09-23T06:35:54.332Z,101511.41
2022-09-23T06:41:03.122Z,101514.25
2022-09-23T06:46:08.416Z,101510.91
2022-09-23T06:51:19.131Z,101502.72
2022-09-23T06:56:24.815Z,101506.50
2022-09-23T07:01:28.612Z,101509.50
2022-09-23T07:06:32.398Z,101508.28
2022-09-23T07:11:37.665Z,101501.66
2022-09-23T07:16:41.768Z,101499.75
2022-09-23T07:21:45.588Z,101499.53
2022-09-23T07:26:50.953Z,101505.72
2022-09-23T07:32:00.700Z,101493.34
2022-09-23T07:37:10.702Z,101499.41
2022-09-23T07:42:15.850Z,101492.16
2022-09-23T07:47:20.124Z,101498.72
2022-09-23T07:52:24.248Z,101505.38
2022-09-23T07:57:29.273Z,101511.00
2022-09-23T08:02:32.994Z,101511.50
2022-09-23T08:07:37.029Z,101508.75
2022-09-23T08:12:42.139Z,101501.94
2022-09-23T08:17:46.306Z,101510.19
2022-09-23T08:22:51.800Z,101505.88
2022-09-23T08:27:57.108Z,101505.09
2022-09-23T08:33:00.818Z,101501.66
2022-09-23T08:38:04.759Z,101496.91
2022-09-23T08:43:18.072Z,101498.88
2022-09-23T08:48:30.579Z,101499.66
2022-09-23T08:53:36.185Z,101488.94
2022-09-23T08:58:51.931Z,101494.69
2022-09-23T09:03:57.853Z,101497.16
2022-09-23T09:09:03.755Z,101492.00
2022-09-23T09:14:22.435Z,101490.25
2022-09-23T09:19:55.355Z,101486.47
2022-09-23T09:25:05.506Z,101486.94
2022-09-23T09:30:13.484Z,101487.84
2022-09-23T09:35:28.089Z,101495.56
2022-09-23T09:40:32.056Z,101492.53
2022-09-23T09:45:57.573Z,101490.38
2022-09-23T09:51:19.771Z,101485.75
2022-09-23T09:56:31.187Z,101478.09
2022-09-23T10:01:36.596Z,101478.63
2022-09-23T10:06:41.840Z,101463.63
2022-09-23T10:12:04.601Z,101458.75
2022-09-23T10:17:18.844Z,101460.84
2022-09-23T10:22:29.857Z,101457.56
2022-09-23T10:27:36.485Z,101466.44
2022-09-23T10:32:45.870Z,101456.00
2022-09-23T10:37:52.651Z,101452.44
2022-09-23T10:43:21.781Z,101443.37
2022-09-23T10:48:41.955Z,101453.38
2022-09-23T10:53:54.643Z,101454.28
2022-09-23T10:59:09.673Z,101443.31
2022-09-23T11:04:29.446Z,101452.56
2022-09-23T11:09:41.223Z,101445.03
2022-09-23T11:15:02.409Z,101454.56
2022-09-23T11:20:31.688Z,101453.13
2022-09-23T11:25:48.229Z,101445.72
2022-09-23T11:31:02.013Z,101443.91
2022-09-23T11:36:10.120Z,101432.38
2022-09-23T11:41:19.473Z,101436.34
2022-09-23T11:46:34.083Z,101424.03
2022-09-23T11:51:45.937Z,101426.97
2022-09-23T11:56:54.441Z,101427.63
2022-09-23T12:02:15.282Z,101420.37
2022-09-23T12:07:27.820Z,101416.59
2022-09-23T12:12:40.450Z,101420.56
2022-09-23T12:17:59.308Z,101406.63
2022-09-23T12:23:19.071Z,101410.03
2022-09-23T12:28:26.951Z,101406.22
2022-09-23T12:33:33.167Z,101408.06
2022-09-23T12:38:41.233Z,101405.91
2022-09-23T12:43:54.947Z,101397.53
2022-09-23T12:49:03.719Z,101388.09
2022-09-23T12:54:24.324Z,101384.59
2022-09-23T12:59:31.172Z,101392.94
2022-09-23T13:05:03.602Z,101391.19
2022-09-23T13:10:16.825Z,101394.22
2022-09-23T13:15:29.759Z,101402.13
2022-09-23T13:20:38.383Z,101400.66
2022-09-23T13:25:44.599Z,101394.62
2022-09-23T13:30:52.060Z,101373.72
2022-09-23T13:36:01.070Z,101377.41
2022-09-23T13:41:12.420Z,101362.91
2022-09-23T13:46:19.133Z,101359.25
2022-09-23T13:51:25.846Z,101355.53
2022-09-23T13:56:32.751Z,101357.19
2022-09-23T14:01:37.025Z,101351.66
2022-09-23T14:06:42.437Z,101345.81
2022-09-23T14:11:47.699Z,101343.25
2022-09-23T14:16:52.865Z,101340.53
2022-09-23T14:21:57.523Z,101338.63
2022-09-23T14:27:14.353Z,101333.16
2022-09-23T14:32:21.736Z,101331.53
2022-09-23T14:37:47.643Z,101335.44
2022-09-23T14:42:58.138Z,101321.34
2022-09-23T14:48:09.769Z,101319.62
2022-09-23T14:53:36.772Z,101313.69
2022-09-23T14:58:51.966Z,101320.63
2022-09-23T15:03:57.380Z,101311.59
2022-09-23T15:09:01.151Z,101314.47
2022-09-23T15:14:33.241Z,101300.03
2022-09-23T15:19:31.548Z,101290.19
2022-09-23T15:24:38.918Z,101299.84
2022-09-23T15:29:43.993Z,101299.69
2022-09-23T15:34:50.605Z,101296.16
2022-09-23T15:39:54.264Z,101294.22
2022-09-23T15:45:00.359Z,101292.44
2022-09-23T15:50:07.201Z,101292.34
2022-09-23T15:55:16.510Z,101291.34
2022-09-23T16:00:21.940Z,101288.63
2022-09-23T16:05:33.049Z,101286.69
2022-09-23T16:10:37.168Z,101288.25
2022-09-23T16:15:42.836Z,101283.88
2022-09-23T16:20:47.798Z,101282.19
2022-09-23T16:25:51.621Z,101273.28
2022-09-23T16:30:56.712Z,101274.09
2022-09-23T16:36:01.853Z,101270.44
2022-09-23T16:41:06.964Z,101271.19
2022-09-23T16:46:14.324Z,101266.78
2022-09-23T16:51:20.543Z,101264.06
2022-09-23T16:56:28.854Z,101266.56
2022-09-23T17:01:52.334Z,101265.59
2022-09-23T17:06:56.680Z,101266.41
2022-09-23T17:12:10.524Z,101268.81
2022-09-23T17:17:15.682Z,101269.59
2022-09-23T17:22:19.384Z,101272.91
2022-09-23T17:27:24.953Z,101282.38
2022-09-23T17:32:30.179Z,101277.09
2022-09-23T17:37:33.962Z,101282.97
2022-09-23T17:42:42.102Z,101285.97
2022-09-23T17:47:54.796Z,101292.97
2022-09-23T17:53:00.086Z,101293.47
2022-09-23T17:58:03.858Z,101286.09
2022-09-23T18:03:08.892Z,101278.69
2022-09-23T18:08:12.768Z,101294.19
2022-09-23T18:13:16.569Z,101296.88
2022-09-23T18:18:21.608Z,101292.50
2022-09-23T18:23:26.193Z,101283.97
2022-09-23T18:28:34.085Z,101278.63
2022-09-23T18:33:39.968Z,101280.31
2022-09-23T18:38:43.794Z,101285.69
2022-09-23T18:43:48.834Z,101281.19
2022-09-23T18:49:12.240Z,101275.03
2022-09-23T18:54:16.250Z,101275.88
2022-09-23T18:59:23.854Z,101275.00
2022-09-23T19:04:29.010Z,101278.28
2022-09-23T19:09:32.786Z,101284.28
2022-09-23T19:14:36.432Z,101276.97
2022-09-23T19:19:42.045Z,101283.03
2022-09-23T19:24:45.796Z,101282.94
2022-09-23T19:29:50.338Z,101276.97
2022-09-23T19:34:55.355Z,101282.94
2022-09-23T19:39:59.069Z,101283.91
2022-09-23T19:45:02.977Z,101279.28
2022-09-23T19:50:09.310Z,101273.25
2022-09-23T19:55:13.473Z,101272.19
2022-09-23T20:00:17.263Z,101271.22
2022-09-23T20:05:23.274Z,101273.72
2022-09-23T20:10:27.222Z,101269.25
2022-09-23T20:15:30.988Z,101264.03
2022-09-23T20:20:36.070Z,101264.69
2022-09-23T20:25:57.464Z,101261.25
2022-09-23T20:31:01.307Z,101257.59
2022-09-23T20:36:07.875Z,101252.31
2022-09-23T20:41:12.029Z,101245.94
2022-09-23T20:46:16.383Z,101247.66
2022-09-23T20:51:21.491Z,101246.50
2022-09-23T20:56:25.298Z,101234.28
2022-09-23T21:01:29.639Z,101243.91
2022-09-23T21:06:35.655Z,101240.34
2022-09-23T21:11:39.433Z,101243.72
2022-09-23T21:16:43.157Z,101240.72
2022-09-23T21:21:48.358Z,101235.59
2022-09-23T21:26:52.034Z,101241.34
2022-09-23T21:31:55.774Z,101248.41
2022-09-23T21:37:00.960Z,101243.28
2022-09-23T21:42:05.932Z,101240.41
2022-09-23T21:47:09.687Z,101238.69
2022-09-23T21:52:14.780Z,101236.78
2022-09-23T21:57:18.475Z,101241.06
2022-09-23T22:02:23.384Z,101243.59
2022-09-23T22:07:28.533Z,101247.91
2022-09-23T22:12:32.556Z,101238.25
2022-09-23T22:17:36.236Z,101234.75
2022-09-23T22:22:41.237Z,101232.12
2022-09-23T22:27:58.896Z,101224.81
2022-09-23T22:33:09.067Z,101224.72
2022-09-23T22:38:14.086Z,101226.53
2022-09-23T22:43:18.591Z,101225.59
2022-09-23T22:48:22.222Z,101219.50
2022-09-23T22:53:29.114Z,101221.25
2022-09-23T22:58:33.062Z,101215.34
2022-09-23T23:03:37.205Z,101209.00
2022-09-23T23:08:42.280Z,101207.34
2022-09-23T23:13:46.113Z,101200.44
2022-09-23T23:18:49.868Z,101201.31
2022-09-23T23:23:54.872Z,101197.50
2022-09-23T23:28:59.077Z,101191.88
2022-09-23T23:34:02.735Z,101189.50
2022-09-23T23:39:08.394Z,101182.25
2022-09-23T23:44:13.318Z,101182.94
2022-09-23T23:49:17.003Z,101174.19
2022-09-23T23:54:22.067Z,101170.88
2022-09-23T23:59:28.241Z,101174.38
